Time;durP1;ratioP1;P1;durP2;ratioP2;P2;SDS_P1;SDS_P2;PMS_P1;PMS_P2;Temp;Humidity;BMP_temperature;BMP_pressure;BME280_temperature;BME280_humidity;BME280_pressure;Samples;Min_cycle;Max_cycle;Signal;HPM_P1;HPM_P2
2023/10/26 00:02:45;;;;;;;1.40;1.30;;;;;;;;;;6277586;28;20294;-73
2023/10/26 00:05:50;;;;;;;1.45;1.35;;;;;;;;;;6278135;28;20452;-72
2023/10/26 00:08:54;;;;;;;1.60;1.50;;;;;;;;;;6277694;28;20295;-72
2023/10/26 00:11:58;;;;;;;2.85;1.40;;;;;;;;;;6275818;28;20295;-73
2023/10/26 00:15:02;;;;;;;1.63;1.52;;;;;;;;;;6277283;28;20295;-71
2023/10/26 00:18:07;;;;;;;2.00;1.90;;;;;;;;;;6277501;28;20291;-72
2023/10/26 00:21:11;;;;;;;2.25;1.52;;;;;;;;;;6268945;28;20299;-71
2023/10/26 00:24:15;;;;;;;1.90;1.63;;;;;;;;;;6281087;28;20291;-72
2023/10/26 00:27:19;;;;;;;1.42;1.33;;;;;;;;;;6281883;28;20607;-71
2023/10/26 00:30:23;;;;;;;1.83;1.50;;;;;;;;;;6281891;28;20302;-71
2023/10/26 00:33:29;;;;;;;1.17;1.17;;;;;;;;;;6281572;28;20315;-71
2023/10/26 00:36:33;;;;;;;3.55;1.58;;;;;;;;;;6282163;28;20291;-73
2023/10/26 00:39:37;;;;;;;1.77;1.30;;;;;;;;;;6281449;28;20363;-72
2023/10/26 00:42:41;;;;;;;3.75;1.45;;;;;;;;;;6281256;28;20551;-71
2023/10/26 00:45:45;;;;;;;4.00;1.65;;;;;;;;;;6282073;28;20510;-72
2023/10/26 00:48:50;;;;;;;1.25;1.25;;;;;;;;;;6281604;28;20294;-73
2023/10/26 00:51:57;;;;;;;1.60;1.50;;;;;;;;;;6281985;28;20488;-71
2023/10/26 00:55:01;;;;;;;1.58;1.25;;;;;;;;;;6279932;28;20618;-71
2023/10/26 00:58:05;;;;;;;1.60;1.27;;;;;;;;;;6281226;28;20304;-71
2023/10/26 01:01:08;;;;;;;1.30;1.30;;;;;;;;;;6281591;28;20290;-72
2023/10/26 01:04:15;;;;;;;2.22;1.60;;;;;;;;;;6279078;28;20298;-71
2023/10/26 01:07:19;;;;;;;3.08;1.42;;;;;;;;;;6279690;28;20716;-72
2023/10/26 01:10:26;;;;;;;2.45;1.38;;;;;;;;;;6278911;28;20295;-71
2023/10/26 01:13:30;;;;;;;3.65;1.80;;;;;;;;;;6279084;28;20298;-72
2023/10/26 01:16:34;;;;;;;1.33;1.30;;;;;;;;;;6281036;28;20306;-72
2023/10/26 01:19:42;;;;;;;1.85;1.50;;;;;;;;;;6280515;28;20307;-71
2023/10/26 01:22:47;;;;;;;1.90;1.50;;;;;;;;;;6280583;28;20362;-71
2023/10/26 01:25:55;;;;;;;3.05;1.45;;;;;;;;;;6280993;28;20308;-71
2023/10/26 01:29:03;;;;;;;1.60;1.50;;;;;;;;;;6280516;28;20298;-71
2023/10/26 01:32:07;;;;;;;2.13;1.63;;;;;;;;;;6270732;28;20300;-72
2023/10/26 01:35:12;;;;;;;1.65;1.55;;;;;;;;;;6270436;28;20296;-72
2023/10/26 01:38:17;;;;;;;1.55;1.45;;;;;;;;;;6254117;28;20552;-72
2023/10/26 01:41:21;;;;;;;1.60;1.50;;;;;;;;;;6256061;28;20303;-72
2023/10/26 01:44:26;;;;;;;1.33;1.33;;;;;;;;;;6255511;28;20323;-71
2023/10/26 01:47:30;;;;;;;1.40;1.40;;;;;;;;;;6256244;28;20292;-73
2023/10/26 01:50:34;;;;;;;1.30;1.30;;;;;;;;;;6254363;28;20363;-72
2023/10/26 01:53:40;;;;;;;4.18;1.25;;;;;;;;;;6254891;28;20319;-72
2023/10/26 01:56:44;;;;;;;2.15;1.40;;;;;;;;;;6253729;28;20516;-71
2023/10/26 01:59:48;;;;;;;1.60;1.50;;;;;;;;;;6253124;28;20242;-72
2023/10/26 02:02:52;;;;;;;1.75;1.48;;;;;;;;;;6253541;28;20291;-72
2023/10/26 02:05:56;;;;;;;1.38;1.27;;;;;;;;;;6255243;28;20344;-71
2023/10/26 02:09:01;;;;;;;2.92;1.50;;;;;;;;;;6254632;28;20312;-73
2023/10/26 02:12:05;;;;;;;4.15;1.40;;;;;;;;;;6265156;28;20301;-72
2023/10/26 02:15:10;;;;;;;1.52;1.40;;;;;;;;;;6269327;28;20291;-71
2023/10/26 02:18:14;;;;;;;2.05;1.50;;;;;;;;;;6254402;28;20587;-72
2023/10/26 02:21:18;;;;;;;1.30;1.20;;;;;;;;;;6269615;28;20371;-72
2023/10/26 02:24:23;;;;;;;2.13;1.45;;;;;;;;;;6269172;28;20579;-73
2023/10/26 02:27:27;;;;;;;2.28;1.40;;;;;;;;;;6254495;28;20304;-74
2023/10/26 02:30:31;;;;;;;4.97;1.70;;;;;;;;;;6252325;28;20299;-73
2023/10/26 02:33:35;;;;;;;2.72;1.40;;;;;;;;;;6274577;28;20508;-73
2023/10/26 02:36:39;;;;;;;3.63;1.40;;;;;;;;;;6279412;28;20310;-72
2023/10/26 02:39:44;;;;;;;1.45;1.35;;;;;;;;;;6278989;28;20326;-71
2023/10/26 02:42:49;;;;;;;1.70;1.30;;;;;;;;;;6277011;28;20596;-72
2023/10/26 02:46:01;;;;;;;1.58;1.58;;;;;;;;;;6276330;28;20290;-71
2023/10/26 02:49:05;;;;;;;1.48;1.27;;;;;;;;;;6278922;28;20229;-72
2023/10/26 02:52:09;;;;;;;1.45;1.42;;;;;;;;;;6279160;28;20354;-71
2023/10/26 02:55:15;;;;;;;1.30;1.30;;;;;;;;;;6277421;28;20479;-71
2023/10/26 02:58:19;;;;;;;1.75;1.55;;;;;;;;;;6278770;28;20350;-71
2023/10/26 03:01:23;;;;;;;2.78;1.15;;;;;;;;;;6279034;28;20310;-71
2023/10/26 03:04:27;;;;;;;1.75;1.30;;;;;;;;;;6276058;28;20294;-71
2023/10/26 03:07:31;;;;;;;1.20;1.05;;;;;;;;;;6279273;28;20327;-72
2023/10/26 03:10:37;;;;;;;2.05;1.33;;;;;;;;;;6276938;28;20291;-72
2023/10/26 03:13:41;;;;;;;1.88;1.30;;;;;;;;;;6279405;28;20622;-72
2023/10/26 03:16:44;;;;;;;1.33;1.23;;;;;;;;;;6278703;28;20295;-72
2023/10/26 03:19:49;;;;;;;1.55;1.42;;;;;;;;;;6278396;28;20282;-72
2023/10/26 03:22:54;;;;;;;1.52;1.42;;;;;;;;;;6276986;28;20291;-73
2023/10/26 03:25:59;;;;;;;1.40;1.40;;;;;;;;;;6276634;28;20615;-73
2023/10/26 03:29:03;;;;;;;1.73;1.45;;;;;;;;;;6278115;28;20519;-72
2023/10/26 03:32:07;;;;;;;4.63;1.50;;;;;;;;;;6278997;28;20291;-72
2023/10/26 03:35:12;;;;;;;4.45;1.58;;;;;;;;;;6275996;28;20219;-71
2023/10/26 03:38:17;;;;;;;1.83;1.30;;;;;;;;;;6278949;28;20310;-72
2023/10/26 03:41:22;;;;;;;1.70;1.58;;;;;;;;;;6276488;28;20234;-72
2023/10/26 03:44:26;;;;;;;3.33;1.45;;;;;;;;;;6278098;28;20366;-72
2023/10/26 03:47:30;;;;;;;1.40;1.40;;;;;;;;;;6278120;28;20667;-71
2023/10/26 03:50:34;;;;;;;3.22;1.35;;;;;;;;;;6278214;28;20291;-72
2023/10/26 03:53:38;;;;;;;2.58;1.40;;;;;;;;;;6277154;28;20286;-73
2023/10/26 03:56:44;;;;;;;1.67;1.40;;;;;;;;;;6279860;28;20322;-71
2023/10/26 03:59:48;;;;;;;1.40;1.30;;;;;;;;;;6298812;28;20304;-71
2023/10/26 04:02:52;;;;;;;1.27;1.27;;;;;;;;;;6283105;28;20286;-72
2023/10/26 04:05:56;;;;;;;1.40;1.30;;;;;;;;;;6282168;28;20296;-73
2023/10/26 04:09:00;;;;;;;2.55;1.40;;;;;;;;;;6282424;28;20295;-72
2023/10/26 04:12:06;;;;;;;2.75;1.50;;;;;;;;;;6281162;28;20548;-73
2023/10/26 04:15:10;;;;;;;1.42;1.33;;;;;;;;;;6282461;28;20624;-72
2023/10/26 04:18:14;;;;;;;2.53;1.30;;;;;;;;;;6282871;28;20283;-72
2023/10/26 04:21:18;;;;;;;1.08;1.08;;;;;;;;;;6263139;28;20632;-71
2023/10/26 04:24:22;;;;;;;2.50;1.30;;;;;;;;;;6257490;28;20295;-71
2023/10/26 04:27:27;;;;;;;1.17;1.13;;;;;;;;;;6257872;28;20605;-71
2023/10/26 04:30:32;;;;;;;2.58;1.42;;;;;;;;;;6257600;28;20296;-71
2023/10/26 04:33:36;;;;;;;1.55;1.40;;;;;;;;;;6277232;28;20303;-72
2023/10/26 04:36:40;;;;;;;2.75;1.40;;;;;;;;;;6281032;28;20295;-72
2023/10/26 04:39:44;;;;;;;1.63;1.50;;;;;;;;;;6281230;28;20631;-71
2023/10/26 04:42:49;;;;;;;1.30;1.30;;;;;;;;;;6281899;28;20302;-72
2023/10/26 04:45:53;;;;;;;1.58;1.40;;;;;;;;;;6281564;28;20291;-73
2023/10/26 04:48:57;;;;;;;1.17;1.15;;;;;;;;;;6280240;28;20282;-72
2023/10/26 04:52:01;;;;;;;1.75;1.35;;;;;;;;;;6281529;28;20286;-73
2023/10/26 04:55:05;;;;;;;2.95;1.40;;;;;;;;;;6256593;28;20295;-71
2023/10/26 04:58:11;;;;;;;1.20;1.20;;;;;;;;;;6256809;28;20291;-70
2023/10/26 05:01:15;;;;;;;1.20;1.20;;;;;;;;;;6256507;28;20310;-72
2023/10/26 05:04:18;;;;;;;1.42;1.40;;;;;;;;;;6271199;28;20315;-72
2023/10/26 05:07:22;;;;;;;1.35;1.35;;;;;;;;;;6269107;28;20302;-71
2023/10/26 05:10:27;;;;;;;1.50;1.40;;;;;;;;;;6279219;28;20294;-71
2023/10/26 05:13:32;;;;;;;2.25;1.70;;;;;;;;;;6281642;28;20595;-71
2023/10/26 05:16:36;;;;;;;2.70;1.85;;;;;;;;;;6280831;28;20492;-72
2023/10/26 05:19:40;;;;;;;1.63;1.30;;;;;;;;;;6281166;28;20295;-72
2023/10/26 05:22:44;;;;;;;3.90;1.60;;;;;;;;;;6281406;28;20311;-72
2023/10/26 05:25:48;;;;;;;1.85;1.63;;;;;;;;;;6280900;28;20290;-72
2023/10/26 05:28:53;;;;;;;1.73;1.33;;;;;;;;;;6280493;28;20321;-74
2023/10/26 05:31:57;;;;;;;1.67;1.60;;;;;;;;;;6281488;28;20583;-71
2023/10/26 05:35:01;;;;;;;1.95;1.38;;;;;;;;;;6280728;28;20295;-71
2023/10/26 05:38:06;;;;;;;1.48;1.45;;;;;;;;;;6280734;28;20466;-70
2023/10/26 05:41:11;;;;;;;1.40;1.40;;;;;;;;;;6280093;28;20294;-71
2023/10/26 05:44:16;;;;;;;1.63;1.50;;;;;;;;;;6278741;28;20335;-71
2023/10/26 05:47:20;;;;;;;2.95;1.65;;;;;;;;;;6280600;28;20290;-72
2023/10/26 05:50:24;;;;;;;3.42;1.60;;;;;;;;;;6280421;28;20432;-73
2023/10/26 05:53:28;;;;;;;1.67;1.58;;;;;;;;;;6280744;28;20306;-73
2023/10/26 05:56:32;;;;;;;1.77;1.67;;;;;;;;;;6279859;28;20306;-73
2023/10/26 05:59:37;;;;;;;2.40;1.83;;;;;;;;;;6280490;28;20295;-73
2023/10/26 06:02:41;;;;;;;3.53;1.50;;;;;;;;;;6281518;28;20299;-71
2023/10/26 06:05:47;;;;;;;1.95;1.70;;;;;;;;;;6279772;28;20573;-72
2023/10/26 06:08:51;;;;;;;1.70;1.60;;;;;;;;;;6279930;28;20547;-73
2023/10/26 06:11:55;;;;;;;1.50;1.40;;;;;;;;;;6278519;28;20303;-73
2023/10/26 06:15:00;;;;;;;1.50;1.50;;;;;;;;;;6279662;28;20302;-73
2023/10/26 06:18:04;;;;;;;1.85;1.65;;;;;;;;;;6279978;28;20291;-72
2023/10/26 06:21:08;;;;;;;1.70;1.60;;;;;;;;;;6279524;28;20291;-71
2023/10/26 06:24:13;;;;;;;2.03;1.92;;;;;;;;;;6279568;28;20290;-74
2023/10/26 06:27:17;;;;;;;3.35;1.63;;;;;;;;;;6279724;28;20603;-72
2023/10/26 06:30:22;;;;;;;1.58;1.48;;;;;;;;;;6278965;28;20306;-71
2023/10/26 06:33:26;;;;;;;1.40;1.40;;;;;;;;;;6279613;28;20315;-72
2023/10/26 06:36:30;;;;;;;1.42;1.40;;;;;;;;;;6279166;28;20371;-74
2023/10/26 06:39:35;;;;;;;1.40;1.40;;;;;;;;;;6279026;28;20290;-72
2023/10/26 06:42:39;;;;;;;1.30;1.30;;;;;;;;;;6278893;28;20251;-72
2023/10/26 06:45:44;;;;;;;1.48;1.48;;;;;;;;;;6278944;28;20298;-73
2023/10/26 06:48:48;;;;;;;1.50;1.40;;;;;;;;;;6278757;28;20295;-73
2023/10/26 06:51:52;;;;;;;1.45;1.35;;;;;;;;;;6278842;28;20295;-71
2023/10/26 06:54:56;;;;;;;1.70;1.60;;;;;;;;;;6278690;28;20298;-72
2023/10/26 06:58:00;;;;;;;2.55;1.40;;;;;;;;;;6294194;28;20373;-74
2023/10/26 07:01:07;;;;;;;1.67;1.60;;;;;;;;;;6276980;28;20330;-73
2023/10/26 07:04:23;;;;;;;1.42;1.40;;;;;;;;;;6278343;28;20242;-73
2023/10/26 07:07:27;;;;;;;2.00;1.80;;;;;;;;;;6278990;28;20300;-72
2023/10/26 07:10:32;;;;;;;1.40;1.40;;;;;;;;;;6276949;28;20298;-72
2023/10/26 07:13:36;;;;;;;1.83;1.48;;;;;;;;;;6278834;28;20295;-71
2023/10/26 07:16:41;;;;;;;1.30;1.30;;;;;;;;;;6268618;28;20330;-72
2023/10/26 07:19:45;;;;;;;1.58;1.48;;;;;;;;;;6278518;28;20463;-72
2023/10/26 07:22:49;;;;;;;3.63;1.27;;;;;;;;;;6278848;28;20294;-72
2023/10/26 07:25:53;;;;;;;1.88;1.50;;;;;;;;;;6278886;28;20286;-72
2023/10/26 07:28:57;;;;;;;1.30;1.30;;;;;;;;;;6278319;28;20588;-73
2023/10/26 07:32:02;;;;;;;2.35;1.60;;;;;;;;;;6280762;28;20291;-73
2023/10/26 07:35:07;;;;;;;1.60;1.50;;;;;;;;;;6283481;28;20241;-71
2023/10/26 07:38:10;;;;;;;1.58;1.48;;;;;;;;;;6284539;28;20299;-71
2023/10/26 07:41:35;;;;;;;1.60;1.60;;;;;;;;;;6282276;28;20303;-71
2023/10/26 07:44:58;;;;;;;1.42;1.42;;;;;;;;;;6283173;28;20575;-71
2023/10/26 07:48:04;;;;;;;1.50;1.50;;;;;;;;;;6283321;28;20295;-71
2023/10/26 07:51:08;;;;;;;3.58;1.80;;;;;;;;;;6282508;28;20604;-71
2023/10/26 07:54:12;;;;;;;2.00;1.50;;;;;;;;;;6283046;28;20303;-72
2023/10/26 07:57:16;;;;;;;1.60;1.50;;;;;;;;;;6269817;28;20294;-71
2023/10/26 08:00:22;;;;;;;1.42;1.42;;;;;;;;;;6282597;28;20307;-73
2023/10/26 08:03:28;;;;;;;1.50;1.50;;;;;;;;;;6282923;28;20375;-71
2023/10/26 08:06:32;;;;;;;1.70;1.60;;;;;;;;;;6282224;28;20291;-71
2023/10/26 08:09:35;;;;;;;3.33;1.60;;;;;;;;;;6282549;28;20302;-72
2023/10/26 08:12:39;;;;;;;1.55;1.55;;;;;;;;;;6281022;28;20607;-71
2023/10/26 08:15:43;;;;;;;2.65;2.55;;;;;;;;;;6282434;28;20303;-72
2023/10/26 08:19:09;;;;;;;1.73;1.63;;;;;;;;;;6282312;28;20315;-72
2023/10/26 08:22:12;;;;;;;1.20;1.20;;;;;;;;;;6282629;28;20448;-71
2023/10/26 08:25:16;;;;;;;1.50;1.48;;;;;;;;;;6282056;28;20299;-71
2023/10/26 08:28:28;;;;;;;1.30;1.30;;;;;;;;;;6281884;28;20302;-71
2023/10/26 08:31:35;;;;;;;2.10;1.70;;;;;;;;;;6281864;28;20287;-71
2023/10/26 08:34:40;;;;;;;1.67;1.40;;;;;;;;;;6281640;28;20310;-72
2023/10/26 08:37:44;;;;;;;1.48;1.48;;;;;;;;;;6282315;28;20322;-72
2023/10/26 08:40:51;;;;;;;1.40;1.35;;;;;;;;;;6281455;28;20283;-70
2023/10/26 08:43:55;;;;;;;1.25;1.25;;;;;;;;;;6280418;28;20545;-71
2023/10/26 08:47:00;;;;;;;1.30;1.30;;;;;;;;;;6282206;28;20302;-71
2023/10/26 08:50:06;;;;;;;1.45;1.40;;;;;;;;;;6281743;28;20596;-71
2023/10/26 08:53:19;;;;;;;1.33;1.33;;;;;;;;;;6277122;28;20356;-72
2023/10/26 08:56:24;;;;;;;1.55;1.48;;;;;;;;;;6256730;28;20299;-71
2023/10/26 08:59:28;;;;;;;1.70;1.60;;;;;;;;;;6256373;28;20300;-72
2023/10/26 09:02:32;;;;;;;1.50;1.20;;;;;;;;;;6256734;28;20383;-71
2023/10/26 09:05:52;;;;;;;1.50;1.40;;;;;;;;;;6256412;28;20561;-73
2023/10/26 09:09:03;;;;;;;2.08;1.33;;;;;;;;;;6256374;28;20291;-71
2023/10/26 09:12:10;;;;;;;1.40;1.40;;;;;;;;;;6255218;28;20300;-72
2023/10/26 09:15:14;;;;;;;1.50;1.40;;;;;;;;;;6256168;28;20295;-71
2023/10/26 09:18:18;;;;;;;4.90;1.90;;;;;;;;;;6256504;28;20307;-71
2023/10/26 09:21:23;;;;;;;1.70;1.60;;;;;;;;;;6255973;28;20628;-72
2023/10/26 09:24:29;;;;;;;1.73;1.73;;;;;;;;;;6255910;28;20295;-73
2023/10/26 09:27:33;;;;;;;1.30;1.30;;;;;;;;;;6256283;28;20296;-72
2023/10/26 09:30:39;;;;;;;1.73;1.70;;;;;;;;;;6256142;28;20320;-73
2023/10/26 09:33:43;;;;;;;3.60;1.80;;;;;;;;;;6279220;28;20360;-72
2023/10/26 09:37:00;;;;;;;1.92;1.45;;;;;;;;;;6281140;28;20282;-71
2023/10/26 09:40:05;;;;;;;1.40;1.30;;;;;;;;;;6272451;28;20624;-72
2023/10/26 09:43:19;;;;;;;1.35;1.25;;;;;;;;;;6281167;28;20287;-71
2023/10/26 09:46:23;;;;;;;1.80;1.70;;;;;;;;;;6281030;28;20435;-72
2023/10/26 09:49:28;;;;;;;1.33;1.27;;;;;;;;;;6280650;28;20626;-72
2023/10/26 09:52:34;;;;;;;2.75;1.40;;;;;;;;;;6280600;28;20291;-71
2023/10/26 09:55:38;;;;;;;1.95;1.77;;;;;;;;;;6279700;28;20294;-71
2023/10/26 09:58:42;;;;;;;1.70;1.60;;;;;;;;;;6280717;28;20299;-71
2023/10/26 10:01:46;;;;;;;1.33;1.27;;;;;;;;;;6281218;28;20471;-72
2023/10/26 10:04:50;;;;;;;2.22;1.50;;;;;;;;;;6280357;28;20295;-70
2023/10/26 10:07:56;;;;;;;3.20;1.63;;;;;;;;;;6280724;28;20287;-69
2023/10/26 10:11:16;;;;;;;3.20;1.10;;;;;;;;;;6283555;28;20294;-71
2023/10/26 10:14:55;;;;;;;1.50;1.50;;;;;;;;;;6279844;28;20584;-71
2023/10/26 10:18:19;;;;;;;1.92;1.83;;;;;;;;;;6279327;28;20548;-71
2023/10/26 10:21:36;;;;;;;2.35;2.10;;;;;;;;;;6279981;28;20315;-71
2023/10/26 10:24:54;;;;;;;3.20;1.60;;;;;;;;;;6279451;28;20698;-71
2023/10/26 10:28:11;;;;;;;1.25;1.25;;;;;;;;;;6280269;28;20842;-72
2023/10/26 10:31:39;;;;;;;1.40;1.30;;;;;;;;;;6279925;28;20287;-71
2023/10/26 10:34:44;;;;;;;1.45;1.40;;;;;;;;;;6279871;28;20599;-71
2023/10/26 10:38:24;;;;;;;1.50;1.50;;;;;;;;;;6280263;28;20290;-75
2023/10/26 10:41:36;;;;;;;1.38;1.23;;;;;;;;;;6279107;28;20290;-72
2023/10/26 10:44:41;;;;;;;1.27;1.23;;;;;;;;;;6278563;28;20235;-72
2023/10/26 10:47:47;;;;;;;1.95;1.30;;;;;;;;;;6279613;28;20290;-71
2023/10/26 10:50:52;;;;;;;1.45;1.45;;;;;;;;;;6279270;28;20286;-72
2023/10/26 10:53:57;;;;;;;2.38;1.60;;;;;;;;;;6278917;28;20331;-71
2023/10/26 10:57:06;;;;;;;1.50;1.40;;;;;;;;;;6279972;28;20583;-74
2023/10/26 11:00:12;;;;;;;1.40;1.40;;;;;;;;;;6279289;28;20302;-72
2023/10/26 11:03:19;;;;;;;1.52;1.50;;;;;;;;;;6279149;28;20521;-72
2023/10/26 11:06:23;;;;;;;1.95;1.40;;;;;;;;;;6277879;28;20450;-72
2023/10/26 11:09:29;;;;;;;1.85;1.40;;;;;;;;;;6279053;28;20302;-71
2023/10/26 11:12:34;;;;;;;1.48;1.38;;;;;;;;;;6277215;28;20299;-72
2023/10/26 11:15:39;;;;;;;1.48;1.48;;;;;;;;;;6278295;28;20296;-71
2023/10/26 11:18:43;;;;;;;1.50;1.50;;;;;;;;;;6278981;28;20564;-73
2023/10/26 11:21:47;;;;;;;1.40;1.40;;;;;;;;;;6278337;28;20343;-71
2023/10/26 11:24:51;;;;;;;1.27;1.25;;;;;;;;;;6278446;28;20253;-71
2023/10/26 11:27:57;;;;;;;1.48;1.35;;;;;;;;;;6278829;28;20290;-71
2023/10/26 11:31:00;;;;;;;1.60;1.50;;;;;;;;;;6278076;28;20295;-71
2023/10/26 11:34:06;;;;;;;3.22;1.35;;;;;;;;;;6278128;28;20286;-73
2023/10/26 11:37:10;;;;;;;1.38;1.30;;;;;;;;;;6279041;28;20295;-71
2023/10/26 11:40:16;;;;;;;1.55;1.52;;;;;;;;;;6277825;28;20346;-71
2023/10/26 11:43:32;;;;;;;1.52;1.52;;;;;;;;;;6278154;28;20322;-72
2023/10/26 11:46:37;;;;;;;1.73;1.52;;;;;;;;;;6278487;28;20299;-72
2023/10/26 11:49:43;;;;;;;1.83;1.80;;;;;;;;;;6278160;28;20303;-71
2023/10/26 11:52:47;;;;;;;3.00;1.67;;;;;;;;;;6278132;28;20292;-71
2023/10/26 11:55:51;;;;;;;4.90;1.50;;;;;;;;;;6277659;28;20710;-72
2023/10/26 11:58:56;;;;;;;1.80;1.70;;;;;;;;;;6278349;28;20539;-72
2023/10/26 12:02:00;;;;;;;1.55;1.33;;;;;;;;;;6278869;28;20478;-72
2023/10/26 12:05:05;;;;;;;1.67;1.67;;;;;;;;;;6267011;28;20227;-71
2023/10/26 12:08:10;;;;;;;1.80;1.70;;;;;;;;;;6264942;28;20291;-73
2023/10/26 12:11:14;;;;;;;1.98;1.85;;;;;;;;;;6289415;28;20234;-72
2023/10/26 12:14:19;;;;;;;2.08;2.00;;;;;;;;;;6278280;28;20302;-72
2023/10/26 12:17:24;;;;;;;1.70;1.60;;;;;;;;;;6276857;28;20294;-72
2023/10/26 12:20:28;;;;;;;2.88;1.80;;;;;;;;;;6287463;28;20346;-72
2023/10/26 12:23:32;;;;;;;1.70;1.60;;;;;;;;;;6289674;28;20353;-70
2023/10/26 12:26:36;;;;;;;3.10;1.67;;;;;;;;;;6282290;28;20431;-72
2023/10/26 12:29:41;;;;;;;2.28;1.98;;;;;;;;;;6282144;28;20350;-70
2023/10/26 12:32:45;;;;;;;1.50;1.50;;;;;;;;;;6282427;28;20290;-72
2023/10/26 12:35:50;;;;;;;2.72;1.73;;;;;;;;;;6282269;28;20298;-73
2023/10/26 12:38:54;;;;;;;2.08;1.65;;;;;;;;;;6282265;28;20307;-71
2023/10/26 12:41:58;;;;;;;1.75;1.65;;;;;;;;;;6281918;28;20367;-72
2023/10/26 12:45:04;;;;;;;1.55;1.55;;;;;;;;;;6281673;28;20310;-72
2023/10/26 12:48:08;;;;;;;1.50;1.50;;;;;;;;;;6282456;28;20298;-71
2023/10/26 12:51:12;;;;;;;2.00;1.90;;;;;;;;;;6281379;28;20690;-71
2023/10/26 12:54:16;;;;;;;1.65;1.45;;;;;;;;;;6279838;28;20291;-72
2023/10/26 12:57:22;;;;;;;3.80;1.73;;;;;;;;;;6282094;28;20552;-71
2023/10/26 13:00:28;;;;;;;1.60;1.50;;;;;;;;;;6281410;28;20587;-72
2023/10/26 13:03:32;;;;;;;1.83;1.73;;;;;;;;;;6286403;28;20646;-71
2023/10/26 13:06:36;;;;;;;1.52;1.52;;;;;;;;;;6281675;28;20560;-71
2023/10/26 13:09:41;;;;;;;1.30;1.30;;;;;;;;;;6280371;28;20326;-76
2023/10/26 13:12:47;;;;;;;1.67;1.58;;;;;;;;;;6280112;28;20303;-70
2023/10/26 13:15:52;;;;;;;1.52;1.50;;;;;;;;;;6281216;28;20352;-71
2023/10/26 13:18:56;;;;;;;1.52;1.50;;;;;;;;;;6280938;28;20302;-72
2023/10/26 13:22:00;;;;;;;1.80;1.70;;;;;;;;;;6281419;28;20335;-71
2023/10/26 13:25:04;;;;;;;4.43;1.60;;;;;;;;;;6281051;28;20591;-72
2023/10/26 13:28:08;;;;;;;1.50;1.40;;;;;;;;;;6281460;28;20359;-72
2023/10/26 13:31:14;;;;;;;4.28;1.80;;;;;;;;;;6283409;28;20282;-71
2023/10/26 13:34:18;;;;;;;4.32;2.00;;;;;;;;;;6255871;28;20620;-72
2023/10/26 13:37:22;;;;;;;3.08;1.73;;;;;;;;;;6256250;28;20299;-72
2023/10/26 13:40:26;;;;;;;2.00;1.70;;;;;;;;;;6258876;28;20323;-71
2023/10/26 13:43:30;;;;;;;1.55;1.45;;;;;;;;;;6280762;28;20310;-72
2023/10/26 13:46:35;;;;;;;2.83;2.13;;;;;;;;;;6280387;28;20323;-72
2023/10/26 13:49:39;;;;;;;1.70;1.60;;;;;;;;;;6280134;28;20290;-72
2023/10/26 13:52:43;;;;;;;1.80;1.75;;;;;;;;;;6280768;28;20290;-71
2023/10/26 13:55:47;;;;;;;2.92;1.40;;;;;;;;;;6279911;28;20401;-71
2023/10/26 13:58:51;;;;;;;1.88;1.60;;;;;;;;;;6280200;28;20318;-71
2023/10/26 14:01:56;;;;;;;2.13;1.70;;;;;;;;;;6280891;28;20312;-71
2023/10/26 14:05:00;;;;;;;1.27;1.27;;;;;;;;;;6280119;28;20405;-72
2023/10/26 14:08:07;;;;;;;1.35;1.25;;;;;;;;;;6280975;28;20298;-72
2023/10/26 14:11:15;;;;;;;1.40;1.30;;;;;;;;;;6278309;28;20330;-71
2023/10/26 14:14:19;;;;;;;1.40;1.40;;;;;;;;;;6279744;28;20309;-74
2023/10/26 14:17:24;;;;;;;1.33;1.20;;;;;;;;;;6279909;28;20596;-72
2023/10/26 14:20:28;;;;;;;1.27;1.27;;;;;;;;;;6277712;28;20425;-71
2023/10/26 14:23:32;;;;;;;1.20;1.10;;;;;;;;;;6279501;28;20307;-72
2023/10/26 14:26:37;;;;;;;1.40;1.25;;;;;;;;;;6279338;28;20319;-72
2023/10/26 14:29:40;;;;;;;1.60;1.50;;;;;;;;;;6279982;28;20299;-72
2023/10/26 14:32:46;;;;;;;1.30;1.30;;;;;;;;;;6279611;28;20299;-70
2023/10/26 14:35:53;;;;;;;1.50;1.50;;;;;;;;;;6279192;28;20358;-71
2023/10/26 14:38:56;;;;;;;1.42;1.42;;;;;;;;;;6279373;28;20291;-71
2023/10/26 14:42:00;;;;;;;1.48;1.38;;;;;;;;;;6278300;28;20291;-72
2023/10/26 14:45:05;;;;;;;2.00;1.50;;;;;;;;;;6279110;28;20299;-72
2023/10/26 14:48:10;;;;;;;1.40;1.35;;;;;;;;;;6278018;28;20419;-72
2023/10/26 14:51:14;;;;;;;1.40;1.40;;;;;;;;;;6278845;28;20287;-72
2023/10/26 14:54:19;;;;;;;3.08;1.75;;;;;;;;;;6278937;28;20295;-71
2023/10/26 14:57:23;;;;;;;1.70;1.60;;;;;;;;;;6278242;28;20302;-74
2023/10/26 15:00:27;;;;;;;1.80;1.70;;;;;;;;;;6278727;28;20283;-71
2023/10/26 15:03:32;;;;;;;1.48;1.48;;;;;;;;;;6279289;28;20287;-71
2023/10/26 15:06:36;;;;;;;2.28;1.58;;;;;;;;;;6279198;28;20581;-72
2023/10/26 15:09:40;;;;;;;1.80;1.70;;;;;;;;;;6278563;28;20554;-76
2023/10/26 15:13:04;;;;;;;2.55;1.80;;;;;;;;;;6279318;28;20319;-71
2023/10/26 15:16:08;;;;;;;1.80;1.70;;;;;;;;;;6278830;28;20298;-72
2023/10/26 15:19:14;;;;;;;2.30;1.88;;;;;;;;;;6278999;28;20368;-72
2023/10/26 15:22:17;;;;;;;2.90;1.65;;;;;;;;;;6279308;28;20302;-72
2023/10/26 15:25:21;;;;;;;1.92;1.60;;;;;;;;;;6253974;28;20299;-72
2023/10/26 15:28:25;;;;;;;1.70;1.70;;;;;;;;;;6227193;28;20480;-72
2023/10/26 15:31:29;;;;;;;2.50;1.67;;;;;;;;;;6276839;28;20614;-71
2023/10/26 15:34:35;;;;;;;1.60;1.60;;;;;;;;;;6278152;28;20314;-71
2023/10/26 15:37:39;;;;;;;2.40;1.90;;;;;;;;;;6278671;28;20496;-70
2023/10/26 15:40:43;;;;;;;2.40;2.20;;;;;;;;;;6278137;28;20302;-71
2023/10/26 15:43:47;;;;;;;1.50;1.50;;;;;;;;;;6278213;28;20307;-70
2023/10/26 15:46:50;;;;;;;1.65;1.65;;;;;;;;;;6278560;28;20291;-70
2023/10/26 15:49:56;;;;;;;2.65;1.83;;;;;;;;;;6270383;28;20369;-71
2023/10/26 15:53:02;;;;;;;1.70;1.60;;;;;;;;;;6280682;28;20289;-71
2023/10/26 15:56:09;;;;;;;1.65;1.58;;;;;;;;;;6274563;28;20595;-70
2023/10/26 15:59:15;;;;;;;2.08;1.85;;;;;;;;;;6282697;28;20611;-71
2023/10/26 16:02:19;;;;;;;2.00;1.80;;;;;;;;;;6281784;28;20307;-70
2023/10/26 16:05:24;;;;;;;1.70;1.70;;;;;;;;;;6282881;28;20398;-71
2023/10/26 16:08:28;;;;;;;1.90;1.90;;;;;;;;;;6283311;28;20315;-70
2023/10/26 16:11:32;;;;;;;6.93;1.92;;;;;;;;;;6268277;28;20572;-72
2023/10/26 16:14:36;;;;;;;3.13;1.73;;;;;;;;;;6282842;28;20308;-74
2023/10/26 16:17:40;;;;;;;2.03;1.58;;;;;;;;;;6283049;28;20768;-69
2023/10/26 16:20:46;;;;;;;1.65;1.65;;;;;;;;;;6273441;28;20315;-72
2023/10/26 16:23:50;;;;;;;1.60;1.60;;;;;;;;;;6257486;28;20299;-72
2023/10/26 16:26:54;;;;;;;1.60;1.58;;;;;;;;;;6257724;28;20299;-73
2023/10/26 16:29:58;;;;;;;1.80;1.70;;;;;;;;;;6262670;28;20306;-71
2023/10/26 16:33:03;;;;;;;1.92;1.92;;;;;;;;;;6274120;28;20298;-77
2023/10/26 16:36:09;;;;;;;2.60;1.85;;;;;;;;;;6281883;28;20595;-72
2023/10/26 16:39:12;;;;;;;2.60;2.20;;;;;;;;;;6281406;28;20311;-72
2023/10/26 16:42:16;;;;;;;2.13;2.00;;;;;;;;;;6283554;28;20565;-72
2023/10/26 16:45:20;;;;;;;2.22;2.13;;;;;;;;;;6282198;28;20440;-70
2023/10/26 16:48:26;;;;;;;1.77;1.73;;;;;;;;;;6282922;28;20393;-71
2023/10/26 16:51:31;;;;;;;1.75;1.75;;;;;;;;;;6281550;28;20314;-70
2023/10/26 16:54:36;;;;;;;2.45;2.22;;;;;;;;;;6281517;28;20299;-71
2023/10/26 16:57:40;;;;;;;2.70;2.20;;;;;;;;;;6281532;28;20299;-72
2023/10/26 17:00:44;;;;;;;2.05;1.95;;;;;;;;;;6281467;28;20311;-71
2023/10/26 17:03:48;;;;;;;2.20;1.90;;;;;;;;;;6280138;28;20311;-71
2023/10/26 17:06:53;;;;;;;2.45;2.35;;;;;;;;;;6282072;28;20599;-71
2023/10/26 17:09:58;;;;;;;1.77;1.67;;;;;;;;;;6279420;28;20294;-70
2023/10/26 17:13:01;;;;;;;2.13;2.10;;;;;;;;;;6281825;28;20298;-71
2023/10/26 17:16:06;;;;;;;2.20;2.20;;;;;;;;;;6280990;28;20338;-72
2023/10/26 17:19:11;;;;;;;1.80;1.80;;;;;;;;;;6272397;28;20302;-71
2023/10/26 17:22:16;;;;;;;1.92;1.90;;;;;;;;;;6281046;28;20291;-73
2023/10/26 17:25:20;;;;;;;2.17;2.00;;;;;;;;;;6281049;28;20302;-71
2023/10/26 17:28:24;;;;;;;1.92;1.90;;;;;;;;;;6281963;28;20564;-72
2023/10/26 17:31:28;;;;;;;2.47;2.33;;;;;;;;;;6280911;28;20287;-71
2023/10/26 17:34:32;;;;;;;2.35;2.20;;;;;;;;;;6280890;28;20282;-71
2023/10/26 17:37:37;;;;;;;2.58;2.25;;;;;;;;;;6280773;28;20599;-71
2023/10/26 17:40:41;;;;;;;3.35;2.40;;;;;;;;;;6280436;28;20319;-72
2023/10/26 17:43:49;;;;;;;3.60;2.35;;;;;;;;;;6280735;28;20330;-71
2023/10/26 17:46:53;;;;;;;3.53;2.45;;;;;;;;;;6281220;28;20386;-70
2023/10/26 17:49:57;;;;;;;4.40;2.38;;;;;;;;;;6280522;28;20631;-71
2023/10/26 17:53:02;;;;;;;2.70;2.50;;;;;;;;;;6280685;28;20564;-71
2023/10/26 17:56:11;;;;;;;2.40;2.28;;;;;;;;;;6278374;28;20635;-70
2023/10/26 17:59:16;;;;;;;2.65;2.45;;;;;;;;;;6279809;28;20331;-71
2023/10/26 18:02:20;;;;;;;2.80;2.50;;;;;;;;;;6280654;28;20291;-74
2023/10/26 18:05:24;;;;;;;5.20;3.03;;;;;;;;;;6279345;28;20546;-69
2023/10/26 18:08:29;;;;;;;2.38;2.25;;;;;;;;;;6280094;28;20291;-70
2023/10/26 18:11:33;;;;;;;2.88;2.60;;;;;;;;;;6277446;28;20303;-70
2023/10/26 18:14:37;;;;;;;3.08;2.88;;;;;;;;;;6280073;28;20318;-70
2023/10/26 18:17:41;;;;;;;2.63;2.45;;;;;;;;;;6280154;28;20306;-69
2023/10/26 18:20:52;;;;;;;3.15;2.60;;;;;;;;;;6280655;28;20619;-72
2023/10/26 18:23:57;;;;;;;4.13;2.58;;;;;;;;;;6277604;28;20287;-69
2023/10/26 18:27:01;;;;;;;2.70;2.50;;;;;;;;;;6280184;28;20314;-69
2023/10/26 18:30:06;;;;;;;2.40;2.20;;;;;;;;;;6279798;28;20287;-70
2023/10/26 18:33:10;;;;;;;4.20;2.70;;;;;;;;;;6279696;28;20315;-71